Time;durP1;ratioP1;P1;durP2;ratioP2;P2;SDS_P1;SDS_P2;PMS_P1;PMS_P2;Temp;Humidity;BMP_temperature;BMP_pressure;BME280_temperature;BME280_humidity;BME280_pressure;Samples;Min_cycle;Max_cycle;Signal;HPM_P1;HPM_P2
2022/09/22 00:00:31;;;;;;;2.50;2.22;;;;;;;;;;5077961;28;20055;-89
2022/09/22 00:02:58;;;;;;;6.72;2.83;;;;;;;;;;5095432;28;20059;-88
2022/09/22 00:05:25;;;;;;;5.57;2.58;;;;;;;;;;5078067;28;20048;-89
2022/09/22 00:07:53;;;;;;;4.15;2.63;;;;;;;;;;5095424;28;20055;-89
2022/09/22 00:10:21;;;;;;;4.50;2.80;;;;;;;;;;5095616;28;20417;-89
2022/09/22 00:12:48;;;;;;;4.18;2.78;;;;;;;;;;5077621;28;20098;-89
2022/09/22 00:15:16;;;;;;;3.78;2.35;;;;;;;;;;5077223;28;20056;-89
2022/09/22 00:17:44;;;;;;;2.88;2.53;;;;;;;;;;5077579;28;20052;-89
2022/09/22 00:20:12;;;;;;;3.50;2.72;;;;;;;;;;5077692;28;20051;-89
2022/09/22 00:22:40;;;;;;;3.88;2.63;;;;;;;;;;5077344;28;20051;-89
2022/09/22 00:25:08;;;;;;;4.10;2.55;;;;;;;;;;5077370;28;20052;-89
2022/09/22 00:27:35;;;;;;;5.45;2.50;;;;;;;;;;5077144;28;20082;-88
2022/09/22 00:30:05;;;;;;;8.15;3.15;;;;;;;;;;5077686;28;20048;-89
2022/09/22 00:32:33;;;;;;;7.07;2.65;;;;;;;;;;5077266;28;20135;-88
2022/09/22 00:35:00;;;;;;;2.90;2.40;;;;;;;;;;5094721;28;20108;-89
2022/09/22 00:37:27;;;;;;;4.25;2.50;;;;;;;;;;5077110;28;20127;-89
2022/09/22 00:39:54;;;;;;;8.43;2.22;;;;;;;;;;5101333;28;20024;-88
2022/09/22 00:42:22;;;;;;;5.75;2.35;;;;;;;;;;5079499;28;20047;-89
2022/09/22 00:44:49;;;;;;;6.88;2.60;;;;;;;;;;5094698;28;20456;-89
2022/09/22 00:47:24;;;;;;;6.60;2.65;;;;;;;;;;5093988;28;20052;-89
2022/09/22 00:49:56;;;;;;;5.25;2.47;;;;;;;;;;5094628;28;20105;-89
2022/09/22 00:52:26;;;;;;;6.22;2.70;;;;;;;;;;5076883;28;20058;-89
2022/09/22 00:54:55;;;;;;;4.65;2.55;;;;;;;;;;5076594;28;20048;-89
2022/09/22 00:57:24;;;;;;;7.55;2.58;;;;;;;;;;5094289;28;20040;-89
2022/09/22 00:59:52;;;;;;;10.32;2.97;;;;;;;;;;5076563;28;20044;-90
2022/09/22 01:02:20;;;;;;;5.53;2.92;;;;;;;;;;5094338;28;20050;-89
2022/09/22 01:04:49;;;;;;;4.38;2.53;;;;;;;;;;5076424;28;20048;-90
2022/09/22 01:07:16;;;;;;;7.18;2.40;;;;;;;;;;5094366;28;20047;-89
2022/09/22 01:09:43;;;;;;;7.65;2.33;;;;;;;;;;5076028;28;20058;-89
2022/09/22 01:12:11;;;;;;;5.45;2.45;;;;;;;;;;5094282;28;20502;-89
2022/09/22 01:14:38;;;;;;;7.65;2.38;;;;;;;;;;5076203;28;20130;-89
2022/09/22 01:17:12;;;;;;;3.20;2.65;;;;;;;;;;5094028;28;20427;-89
2022/09/22 01:20:05;;;;;;;5.88;2.67;;;;;;;;;;5094444;28;20055;-89
2022/09/22 01:22:54;;;;;;;3.88;2.40;;;;;;;;;;5093968;28;20060;-89
2022/09/22 01:25:22;;;;;;;3.28;2.90;;;;;;;;;;5072301;28;20043;-90
2022/09/22 01:27:51;;;;;;;5.38;2.10;;;;;;;;;;5094077;28;20052;-89
2022/09/22 01:30:22;;;;;;;3.40;2.08;;;;;;;;;;5075096;28;20052;-89
2022/09/22 01:33:05;;;;;;;6.53;2.78;;;;;;;;;;5093885;28;20086;-89
2022/09/22 01:35:39;;;;;;;3.97;2.42;;;;;;;;;;5093665;28;20055;-89
2022/09/22 01:38:23;;;;;;;6.50;2.88;;;;;;;;;;5076553;28;20071;-90
2022/09/22 01:41:00;;;;;;;3.38;2.60;;;;;;;;;;5075958;28;20476;-90
2022/09/22 01:43:47;;;;;;;5.40;2.63;;;;;;;;;;5093845;28;20074;-90
2022/09/22 01:46:18;;;;;;;4.78;2.70;;;;;;;;;;5075883;28;20086;-89
2022/09/22 01:48:48;;;;;;;3.08;2.40;;;;;;;;;;5095544;28;20203;-90
2022/09/22 01:51:19;;;;;;;3.90;2.25;;;;;;;;;;5103290;28;20044;-90
2022/09/22 01:53:50;;;;;;;4.65;2.65;;;;;;;;;;5093688;28;20048;-90
2022/09/22 01:56:18;;;;;;;5.30;2.00;;;;;;;;;;5093752;28;20052;-90
2022/09/22 01:58:47;;;;;;;2.10;1.83;;;;;;;;;;5097443;28;20489;-90
2022/09/22 02:01:18;;;;;;;5.00;2.13;;;;;;;;;;5097822;28;20048;-89
2022/09/22 02:03:49;;;;;;;4.10;2.17;;;;;;;;;;5079646;28;20055;-90
2022/09/22 02:06:19;;;;;;;4.07;2.15;;;;;;;;;;5098055;28;20051;-90
2022/09/22 02:08:58;;;;;;;6.25;2.95;;;;;;;;;;5079995;28;20048;-90
2022/09/22 02:11:25;;;;;;;2.85;2.65;;;;;;;;;;5076435;28;20403;-90
2022/09/22 02:13:52;;;;;;;5.18;2.38;;;;;;;;;;5097910;28;20056;-90
2022/09/22 02:16:20;;;;;;;2.38;2.05;;;;;;;;;;5080232;28;20385;-90
2022/09/22 02:19:04;;;;;;;4.15;2.40;;;;;;;;;;5097559;28;20139;-90
2022/09/22 02:21:39;;;;;;;3.53;2.40;;;;;;;;;;5098090;28;20166;-90
2022/09/22 02:24:06;;;;;;;5.32;2.35;;;;;;;;;;5079470;28;20063;-90
2022/09/22 02:26:35;;;;;;;2.50;1.85;;;;;;;;;;5097285;28;20044;-90
2022/09/22 02:29:04;;;;;;;11.30;2.53;;;;;;;;;;5079663;28;20127;-90
2022/09/22 02:31:33;;;;;;;2.67;2.40;;;;;;;;;;5079259;28;20040;-90
2022/09/22 02:34:01;;;;;;;8.85;2.20;;;;;;;;;;5079469;28;20470;-91
2022/09/22 02:36:28;;;;;;;9.05;2.45;;;;;;;;;;5097090;28;20040;-90
2022/09/22 02:39:10;;;;;;;5.63;2.35;;;;;;;;;;5079395;28;20470;-90
2022/09/22 02:41:43;;;;;;;3.83;2.03;;;;;;;;;;5079098;28;20534;-90
2022/09/22 02:44:16;;;;;;;2.60;2.38;;;;;;;;;;5079336;28;20163;-90
2022/09/22 02:46:45;;;;;;;3.88;2.58;;;;;;;;;;5096917;28;20044;-90
2022/09/22 02:49:15;;;;;;;5.50;2.53;;;;;;;;;;5079347;28;20055;-90
2022/09/22 02:51:45;;;;;;;7.25;2.55;;;;;;;;;;5079039;28;20509;-90
2022/09/22 02:54:13;;;;;;;2.83;2.60;;;;;;;;;;5096783;28;20488;-90
2022/09/22 02:56:41;;;;;;;4.18;2.58;;;;;;;;;;5079121;28;20047;-90
2022/09/22 02:59:08;;;;;;;9.13;2.95;;;;;;;;;;5096844;28;20122;-90
2022/09/22 03:01:36;;;;;;;4.25;2.10;;;;;;;;;;5078848;28;20055;-90
2022/09/22 03:04:04;;;;;;;2.70;2.28;;;;;;;;;;5096871;28;20048;-90
2022/09/22 03:06:31;;;;;;;2.45;2.25;;;;;;;;;;5096922;28;20051;-91
2022/09/22 03:08:58;;;;;;;3.83;2.28;;;;;;;;;;5078392;28;20135;-91
2022/09/22 03:11:26;;;;;;;2.42;2.22;;;;;;;;;;5079175;28;20067;-90
2022/09/22 03:13:53;;;;;;;5.70;2.10;;;;;;;;;;5096451;28;20051;-90
2022/09/22 03:16:20;;;;;;;3.97;2.45;;;;;;;;;;5078737;28;20055;-90
2022/09/22 03:18:48;;;;;;;3.78;2.17;;;;;;;;;;5078790;28;20080;-90
2022/09/22 03:21:15;;;;;;;4.55;2.25;;;;;;;;;;5078585;28;20471;-90
2022/09/22 03:23:42;;;;;;;3.40;2.63;;;;;;;;;;5078425;28;20048;-90
2022/09/22 03:26:09;;;;;;;3.42;2.20;;;;;;;;;;5078436;28;20048;-90
2022/09/22 03:28:36;;;;;;;4.57;2.20;;;;;;;;;;5096356;28;20052;-91
2022/09/22 03:31:03;;;;;;;5.03;2.30;;;;;;;;;;5096095;28;20507;-91
2022/09/22 03:33:30;;;;;;;6.75;2.20;;;;;;;;;;5096092;28;20093;-91
2022/09/22 03:35:58;;;;;;;2.75;2.33;;;;;;;;;;5078302;28;20044;-91
2022/09/22 03:38:25;;;;;;;3.15;2.15;;;;;;;;;;5095997;28;20048;-91
2022/09/22 03:40:52;;;;;;;2.13;1.98;;;;;;;;;;5096164;28;20044;-91
2022/09/22 03:43:19;;;;;;;2.92;2.42;;;;;;;;;;5095937;28;20484;-90
2022/09/22 03:45:47;;;;;;;2.65;2.40;;;;;;;;;;5078109;28;20055;-90
2022/09/22 03:48:14;;;;;;;5.32;2.70;;;;;;;;;;5078093;28;20399;-91
2022/09/22 03:50:41;;;;;;;2.88;2.03;;;;;;;;;;5077749;28;20527;-91
2022/09/22 03:53:09;;;;;;;3.03;2.42;;;;;;;;;;5078030;28;20056;-91
2022/09/22 03:55:36;;;;;;;5.95;2.55;;;;;;;;;;5078192;28;20040;-90
2022/09/22 03:58:03;;;;;;;3.60;2.03;;;;;;;;;;5077874;28;20047;-91
2022/09/22 04:00:31;;;;;;;3.13;2.63;;;;;;;;;;5077994;28;20112;-91
2022/09/22 04:02:58;;;;;;;5.35;3.13;;;;;;;;;;5078056;28;20419;-92
2022/09/22 04:05:25;;;;;;;4.13;2.88;;;;;;;;;;5077799;28;20508;-90
2022/09/22 04:07:53;;;;;;;3.38;3.08;;;;;;;;;;5078124;28;20059;-91
2022/09/22 04:10:20;;;;;;;4.57;2.40;;;;;;;;;;5077671;28;20052;-91
2022/09/22 04:12:47;;;;;;;3.63;2.60;;;;;;;;;;5078042;28;20051;-90
2022/09/22 04:15:14;;;;;;;3.30;2.67;;;;;;;;;;5077880;28;20062;-90
2022/09/22 04:17:42;;;;;;;6.03;2.97;;;;;;;;;;5077738;28;20051;-91
2022/09/22 04:20:10;;;;;;;8.85;2.88;;;;;;;;;;5077191;28;20079;-90
2022/09/22 04:22:38;;;;;;;2.85;2.65;;;;;;;;;;5077433;28;20048;-90
2022/09/22 04:25:06;;;;;;;6.47;3.17;;;;;;;;;;5076776;28;20055;-91
2022/09/22 04:27:33;;;;;;;12.00;3.28;;;;;;;;;;5077351;28;20047;-90
2022/09/22 04:30:00;;;;;;;4.07;2.78;;;;;;;;;;5095088;28;20054;-91
2022/09/22 04:32:31;;;;;;;5.85;2.90;;;;;;;;;;5095250;28;20503;-91
2022/09/22 04:34:58;;;;;;;5.18;3.03;;;;;;;;;;5094691;28;20531;-91
2022/09/22 04:37:25;;;;;;;4.55;2.65;;;;;;;;;;5094761;28;20062;-90
2022/09/22 04:39:53;;;;;;;5.93;2.90;;;;;;;;;;5077505;28;20048;-91
2022/09/22 04:42:20;;;;;;;5.63;2.60;;;;;;;;;;5076809;28;20514;-91
2022/09/22 04:44:48;;;;;;;3.00;2.58;;;;;;;;;;5077199;28;20048;-92
2022/09/22 04:47:15;;;;;;;7.38;2.70;;;;;;;;;;5094461;28;20048;-92
2022/09/22 04:49:42;;;;;;;4.32;2.95;;;;;;;;;;5094530;28;20051;-91
2022/09/22 04:52:09;;;;;;;7.22;3.00;;;;;;;;;;5077128;28;20544;-91
2022/09/22 04:54:36;;;;;;;4.00;2.55;;;;;;;;;;5094406;28;20046;-91
2022/09/22 04:57:03;;;;;;;8.93;3.20;;;;;;;;;;5076978;28;20052;-92
2022/09/22 04:59:30;;;;;;;6.07;3.85;;;;;;;;;;5094446;28;20059;-91
2022/09/22 05:01:58;;;;;;;8.77;4.25;;;;;;;;;;5076901;28;20498;-91
2022/09/22 05:04:25;;;;;;;10.23;4.90;;;;;;;;;;5077395;28;20052;-91
2022/09/22 05:06:52;;;;;;;23.85;9.63;;;;;;;;;;5094360;28;20063;-92
2022/09/22 05:09:19;;;;;;;27.90;13.05;;;;;;;;;;5095447;28;20052;-91
2022/09/22 05:11:49;;;;;;;29.35;15.13;;;;;;;;;;5076837;28;20048;-91
2022/09/22 05:14:17;;;;;;;36.92;16.73;;;;;;;;;;5077712;28;20126;-91
2022/09/22 05:16:50;;;;;;;21.00;11.05;;;;;;;;;;5094357;28;20052;-92
2022/09/22 05:19:17;;;;;;;15.38;8.18;;;;;;;;;;5076246;28;20048;-91
2022/09/22 05:21:44;;;;;;;12.27;6.97;;;;;;;;;;5094100;28;20055;-91
2022/09/22 05:24:11;;;;;;;16.58;8.77;;;;;;;;;;5076502;28;20048;-91
2022/09/22 05:26:38;;;;;;;9.68;7.15;;;;;;;;;;5077971;28;20514;-91
2022/09/22 05:29:05;;;;;;;13.00;8.57;;;;;;;;;;5076370;28;20048;-91
2022/09/22 05:31:32;;;;;;;9.68;7.90;;;;;;;;;;5076059;28;20052;-91
2022/09/22 05:34:00;;;;;;;23.08;12.23;;;;;;;;;;5093865;28;20043;-91
2022/09/22 05:36:27;;;;;;;24.30;14.32;;;;;;;;;;5076399;28;20132;-92
2022/09/22 05:38:54;;;;;;;39.00;22.05;;;;;;;;;;5076062;28;20052;-91
2022/09/22 05:41:21;;;;;;;22.35;11.07;;;;;;;;;;5093771;28;20058;-92
2022/09/22 05:43:48;;;;;;;12.70;5.88;;;;;;;;;;5093936;28;20066;-91
2022/09/22 05:46:15;;;;;;;8.02;5.25;;;;;;;;;;5076020;28;20131;-91
2022/09/22 05:48:45;;;;;;;15.98;6.47;;;;;;;;;;5093934;28;20040;-92
2022/09/22 05:51:12;;;;;;;14.02;8.02;;;;;;;;;;5093889;28;20059;-91
2022/09/22 05:53:39;;;;;;;19.45;8.35;;;;;;;;;;5076310;28;20055;-91
2022/09/22 05:56:06;;;;;;;9.98;6.82;;;;;;;;;;5076267;28;20479;-91
2022/09/22 05:58:33;;;;;;;12.23;7.07;;;;;;;;;;5094016;28;20500;-91
2022/09/22 06:01:00;;;;;;;9.25;7.03;;;;;;;;;;5093749;28;20127;-91
2022/09/22 06:03:28;;;;;;;11.35;8.30;;;;;;;;;;5076466;28;20097;-92
2022/09/22 06:05:55;;;;;;;7.25;5.72;;;;;;;;;;5093681;28;20047;-91
2022/09/22 06:08:22;;;;;;;10.32;6.40;;;;;;;;;;5076084;28;20044;-91
2022/09/22 06:10:50;;;;;;;16.17;5.43;;;;;;;;;;5093827;28;20454;-90
2022/09/22 06:13:17;;;;;;;16.63;7.05;;;;;;;;;;5075678;28;20040;-90
2022/09/22 06:15:47;;;;;;;11.30;5.30;;;;;;;;;;5075780;28;20048;-90
2022/09/22 06:18:18;;;;;;;6.80;4.55;;;;;;;;;;5093627;28;20048;-91
2022/09/22 06:20:50;;;;;;;9.02;4.78;;;;;;;;;;5093393;28;20080;-90
2022/09/22 06:23:17;;;;;;;7.72;3.17;;;;;;;;;;5075344;28;20530;-89
2022/09/22 06:25:45;;;;;;;10.77;3.67;;;;;;;;;;5075705;28;20052;-90
2022/09/22 06:28:13;;;;;;;5.15;4.60;;;;;;;;;;5093232;28;20044;-89
2022/09/22 06:30:40;;;;;;;13.25;3.63;;;;;;;;;;5075712;28;20059;-88
2022/09/22 06:33:08;;;;;;;16.35;4.10;;;;;;;;;;5075375;28;20056;-88
2022/09/22 06:35:36;;;;;;;5.18;3.28;;;;;;;;;;5075481;28;20439;-88
2022/09/22 06:38:05;;;;;;;4.53;2.72;;;;;;;;;;5075758;28;20044;-88
2022/09/22 06:40:35;;;;;;;12.57;4.68;;;;;;;;;;5075220;28;20052;-87
2022/09/22 06:43:11;;;;;;;11.82;5.70;;;;;;;;;;5093059;28;20048;-86
2022/09/22 06:45:39;;;;;;;14.73;6.47;;;;;;;;;;5096363;28;20044;-86
2022/09/22 06:48:06;;;;;;;14.98;7.22;;;;;;;;;;5078978;28;20549;-87
2022/09/22 06:50:37;;;;;;;14.40;6.10;;;;;;;;;;5096803;28;20497;-87
2022/09/22 06:53:10;;;;;;;31.08;7.70;;;;;;;;;;5078755;28;20052;-86
2022/09/22 06:55:38;;;;;;;18.77;5.18;;;;;;;;;;5078542;28;20476;-86
2022/09/22 06:58:05;;;;;;;8.20;3.15;;;;;;;;;;5078533;28;20071;-87
2022/09/22 07:00:33;;;;;;;4.50;2.22;;;;;;;;;;5096647;28;20054;-87
2022/09/22 07:03:19;;;;;;;11.75;3.40;;;;;;;;;;5078503;28;20052;-86
2022/09/22 07:05:54;;;;;;;12.18;2.90;;;;;;;;;;5078400;28;20123;-86
2022/09/22 07:08:21;;;;;;;8.18;2.38;;;;;;;;;;5096311;28;20077;-86
2022/09/22 07:10:56;;;;;;;6.63;2.60;;;;;;;;;;5096273;28;20415;-86
2022/09/22 07:13:23;;;;;;;3.13;2.00;;;;;;;;;;5078329;28;20048;-86
2022/09/22 07:15:51;;;;;;;6.47;2.20;;;;;;;;;;5095872;28;20051;-86
2022/09/22 07:18:18;;;;;;;8.73;1.83;;;;;;;;;;5078285;28;20050;-85
2022/09/22 07:20:45;;;;;;;8.32;2.38;;;;;;;;;;5096236;28;20052;-86
2022/09/22 07:23:17;;;;;;;9.32;2.20;;;;;;;;;;5077863;28;20056;-85
2022/09/22 07:25:55;;;;;;;7.43;2.17;;;;;;;;;;5095926;28;20476;-85
2022/09/22 07:28:27;;;;;;;15.73;3.90;;;;;;;;;;5096187;28;20044;-87
2022/09/22 07:30:58;;;;;;;11.45;3.42;;;;;;;;;;5078318;28;20052;-87
2022/09/22 07:33:25;;;;;;;12.85;2.60;;;;;;;;;;5078220;28;20047;-88
2022/09/22 07:36:03;;;;;;;13.90;3.05;;;;;;;;;;5078193;28;20055;-87
2022/09/22 07:38:35;;;;;;;17.70;3.15;;;;;;;;;;5078379;28;20055;-88
2022/09/22 07:41:03;;;;;;;7.88;2.67;;;;;;;;;;5078253;28;20054;-88
2022/09/22 07:43:31;;;;;;;16.73;2.40;;;;;;;;;;5078445;28;20052;-89
2022/09/22 07:45:58;;;;;;;15.48;2.63;;;;;;;;;;5095703;28;20047;-87
2022/09/22 07:48:35;;;;;;;15.75;2.70;;;;;;;;;;5077956;28;20050;-88
2022/09/22 07:51:10;;;;;;;14.82;2.67;;;;;;;;;;5095765;28;20048;-88
2022/09/22 07:53:44;;;;;;;18.58;2.40;;;;;;;;;;5095816;28;20427;-88
2022/09/22 07:56:13;;;;;;;9.10;2.05;;;;;;;;;;5077667;28;20059;-88
2022/09/22 07:58:44;;;;;;;12.25;2.20;;;;;;;;;;5095732;28;20557;-88
2022/09/22 08:01:11;;;;;;;12.77;2.45;;;;;;;;;;5078050;28;20048;-88
2022/09/22 08:03:39;;;;;;;8.40;2.28;;;;;;;;;;5077866;28;20105;-88
2022/09/22 08:06:10;;;;;;;17.25;3.50;;;;;;;;;;5077512;28;20054;-86
2022/09/22 08:08:45;;;;;;;18.83;2.28;;;;;;;;;;5077483;28;20492;-87
2022/09/22 08:11:14;;;;;;;11.35;2.33;;;;;;;;;;5077695;28;20044;-89
2022/09/22 08:13:43;;;;;;;13.55;2.00;;;;;;;;;;5077559;28;20055;-89
2022/09/22 08:16:10;;;;;;;10.68;1.80;;;;;;;;;;5077757;28;20476;-89
2022/09/22 08:18:40;;;;;;;10.48;1.60;;;;;;;;;;5077582;28;20055;-89
2022/09/22 08:21:07;;;;;;;8.32;2.08;;;;;;;;;;5090225;28;20048;-90
2022/09/22 08:23:36;;;;;;;9.13;2.00;;;;;;;;;;5083232;28;20052;-88
2022/09/22 08:26:07;;;;;;;10.95;2.22;;;;;;;;;;5075461;28;20051;-89
2022/09/22 08:28:35;;;;;;;11.15;1.80;;;;;;;;;;5067401;28;20481;-89
2022/09/22 08:31:02;;;;;;;9.32;1.83;;;;;;;;;;5058803;28;20059;-89
2022/09/22 08:33:30;;;;;;;13.77;2.78;;;;;;;;;;5057743;28;20507;-90
2022/09/22 08:36:02;;;;;;;6.75;2.05;;;;;;;;;;5074044;28;20086;-90
2022/09/22 08:38:32;;;;;;;5.88;1.40;;;;;;;;;;5077781;28;20047;-89
2022/09/22 08:41:16;;;;;;;4.90;1.70;;;;;;;;;;5070484;28;20048;-90
2022/09/22 08:43:43;;;;;;;;;;;;;;;;;;5058407;28;20099;-89
2022/09/22 08:46:11;;;;;;;5.15;2.30;;;;;;;;;;5059181;28;19923;-88
2022/09/22 08:54:15;;;;;;;3.35;1.42;;;;;;;;;;5094115;28;20052;-89
2022/09/22 08:56:56;;;;;;;2.15;1.50;;;;;;;;;;5069291;28;20488;-89
2022/09/22 08:59:26;;;;;;;3.55;0.93;;;;;;;;;;5071763;28;20070;-89
2022/09/22 09:02:12;;;;;;;3.60;1.27;;;;;;;;;;5068818;28;20052;-88
2022/09/22 09:05:12;;;;;;;2.65;0.90;;;;;;;;;;5064343;28;20572;-90
2022/09/22 09:07:51;;;;;;;4.65;1.40;;;;;;;;;;5007384;28;20040;-89
2022/09/22 09:10:27;;;;;;;4.72;1.05;;;;;;;;;;5073170;28;20132;-89
2022/09/22 09:13:01;;;;;;;4.18;1.02;;;;;;;;;;5075543;28;20048;-89
2022/09/22 09:15:42;;;;;;;4.70;0.75;;;;;;;;;;5058225;28;20493;-91
2022/09/22 09:18:14;;;;;;;1.38;0.70;;;;;;;;;;5059521;28;20052;-90
2022/09/22 09:20:41;;;;;;;2.05;0.90;;;;;;;;;;5055754;28;20056;-88
2022/09/22 09:23:14;;;;;;;2.33;1.02;;;;;;;;;;5073276;28;20142;-88
2022/09/22 09:25:42;;;;;;;1.88;0.80;;;;;;;;;;5091071;28;20107;-89
2022/09/22 09:28:30;;;;;;;2.60;1.00;;;;;;;;;;5068169;28;20407;-94
2022/09/22 09:31:30;;;;;;;2.60;1.00;;;;;;;;;;5078409;28;20158;-89
2022/09/22 09:34:00;;;;;;;4.22;1.10;;;;;;;;;;5003504;28;20054;-87
2022/09/22 09:36:33;;;;;;;2.63;0.90;;;;;;;;;;5056090;28;20059;-91
2022/09/22 09:39:03;;;;;;;1.60;0.77;;;;;;;;;;5055827;28;20052;-90
2022/09/22 09:41:31;;;;;;;1.25;0.80;;;;;;;;;;5073570;28;20531;-89
2022/09/22 09:43:59;;;;;;;3.63;1.00;;;;;;;;;;5055875;28;20048;-90
2022/09/22 09:46:29;;;;;;;1.23;0.63;;;;;;;;;;5073234;28;20048;-87
2022/09/22 09:49:03;;;;;;;0.98;0.80;;;;;;;;;;5056016;28;20462;-92
2022/09/22 09:51:34;;;;;;;0.47;0.47;;;;;;;;;;5055822;28;20048;-88
2022/09/22 09:54:08;;;;;;;0.73;0.73;;;;;;;;;;5056504;28;20052;-89
2022/09/22 09:57:00;;;;;;;2.92;0.77;;;;;;;;;;5056732;28;20052;-94
2022/09/22 10:02:14;;;;;;;1.23;0.50;;;;;;;;;;5073592;28;20048;-89
2022/09/22 10:04:52;;;;;;;1.90;0.60;;;;;;;;;;5073560;28;20044;-87
2022/09/22 10:07:27;;;;;;;9.65;0.70;;;;;;;;;;5056031;28;20053;-88
2022/09/22 10:09:55;;;;;;;2.05;0.40;;;;;;;;;;5055591;28;20485;-88
2022/09/22 10:12:29;;;;;;;5.35;0.50;;;;;;;;;;5055806;28;20400;-88
2022/09/22 10:14:58;;;;;;;0.82;0.50;;;;;;;;;;5055834;28;20052;-89
2022/09/22 10:17:29;;;;;;;0.38;0.38;;;;;;;;;;5073250;28;20127;-86
2022/09/22 10:20:15;;;;;;;0.38;0.30;;;;;;;;;;5075437;28;20481;-87
2022/09/22 10:22:42;;;;;;;0.30;0.30;;;;;;;;;;5077052;28;20061;-91
2022/09/22 10:25:19;;;;;;;0.30;0.30;;;;;;;;;;5059374;28;20045;-88
2022/09/22 10:27:58;;;;;;;4.25;0.30;;;;;;;;;;5059637;28;20408;-91
2022/09/22 10:30:26;;;;;;;3.47;0.80;;;;;;;;;;5059703;28;20488;-89
2022/09/22 10:33:04;;;;;;;4.35;1.10;;;;;;;;;;5059402;28;20079;-89
2022/09/22 10:35:35;;;;;;;1.85;0.80;;;;;;;;;;5059502;28;20048;-89
2022/09/22 10:38:17;;;;;;;1.13;0.55;;;;;;;;;;5077476;28;20502;-89
2022/09/22 10:40:47;;;;;;;1.02;0.70;;;;;;;;;;5076791;28;20048;-88
2022/09/22 10:43:44;;;;;;;2.97;0.60;;;;;;;;;;5077029;28;20060;-88
2022/09/22 10:46:25;;;;;;;0.90;0.70;;;;;;;;;;5038813;28;20056;-92
2022/09/22 10:49:03;;;;;;;5.90;1.08;;;;;;;;;;5059084;28;20048;-90
2022/09/22 10:51:37;;;;;;;2.13;0.65;;;;;;;;;;5059281;28;20067;-88
2022/09/22 10:54:14;;;;;;;0.77;0.47;;;;;;;;;;5059448;28;20052;-89
2022/09/22 10:56:44;;;;;;;0.88;0.55;;;;;;;;;;5076779;28;20055;-88
2022/09/22 10:59:20;;;;;;;2.28;0.70;;;;;;;;;;5059503;28;20045;-89
2022/09/22 11:01:55;;;;;;;2.78;0.60;;;;;;;;;;5059085;28;20059;-91
2022/09/22 11:04:28;;;;;;;1.60;0.50;;;;;;;;;;5059270;28;20090;-90
2022/09/22 11:13:21;;;;;;;0.55;0.52;;;;;;;;;;4975722;28;20059;-86
2022/09/22 11:16:02;;;;;;;1.90;0.50;;;;;;;;;;5058128;28;20531;-87
2022/09/22 11:18:40;;;;;;;0.70;0.30;;;;;;;;;;5058836;28;20538;-88
2022/09/22 11:21:19;;;;;;;3.05;0.50;;;;;;;;;;5058808;28;20059;-88
2022/09/22 11:24:00;;;;;;;0.55;0.32;;;;;;;;;;5058741;28;20524;-88
2022/09/22 11:26:38;;;;;;;4.50;0.50;;;;;;;;;;5058603;28;20048;-88
2022/09/22 11:29:24;;;;;;;2.45;0.40;;;;;;;;;;5058850;28;20068;-90
2022/09/22 11:32:08;;;;;;;3.40;0.43;;;;;;;;;;5058386;28;20059;-89
2022/09/22 11:34:35;;;;;;;;;;;;;;;;;;5059075;28;20135;-88
2022/09/22 11:37:26;;;;;;;1.55;0.40;;;;;;;;;;5076167;28;19926;-90
2022/09/22 11:40:02;;;;;;;1.23;0.50;;;;;;;;;;5075963;28;20053;-88
2022/09/22 11:42:42;;;;;;;2.08;0.50;;;;;;;;;;5058335;28;20044;-87
2022/09/22 11:45:15;;;;;;;0.70;0.52;;;;;;;;;;5075920;28;20060;-87
2022/09/22 11:47:51;;;;;;;2.33;0.30;;;;;;;;;;5058083;28;20052;-87
2022/09/22 11:50:18;;;;;;;2.33;0.75;;;;;;;;;;5058330;28;20454;-89
2022/09/22 11:53:05;;;;;;;0.82;0.82;;;;;;;;;;5075365;28;20503;-88
2022/09/22 11:55:42;;;;;;;2.50;0.70;;;;;;;;;;5057942;28;20071;-86
2022/09/22 11:58:13;;;;;;;1.13;0.57;;;;;;;;;;5058190;28;20056;-87
2022/09/22 12:00:46;;;;;;;3.13;0.40;;;;;;;;;;5058115;28;20420;-87
2022/09/22 12:03:16;;;;;;;0.85;0.52;;;;;;;;;;5075698;28;20049;-89
2022/09/22 12:05:49;;;;;;;0.50;0.50;;;;;;;;;;5057799;28;20059;-90
2022/09/22 12:08:21;;;;;;;0.65;0.57;;;;;;;;;;5075222;28;20068;-88
2022/09/22 12:10:50;;;;;;;0.98;0.40;;;;;;;;;;5057691;28;20072;-88
2022/09/22 12:13:19;;;;;;;1.20;0.38;;;;;;;;;;5057798;28;20051;-88
2022/09/22 12:15:59;;;;;;;1.75;0.40;;;;;;;;;;5057407;28;20059;-87
2022/09/22 12:18:33;;;;;;;1.42;0.85;;;;;;;;;;5057402;28;20122;-87
2022/09/22 12:21:06;;;;;;;8.40;1.23;;;;;;;;;;5074850;28;20048;-86
2022/09/22 12:23:38;;;;;;;0.20;0.20;;;;;;;;;;5057108;28;20048;-88
2022/09/22 12:26:07;;;;;;;2.92;0.70;;;;;;;;;;5057304;28;20061;-88
2022/09/22 12:28:38;;;;;;;0.47;0.38;;;;;;;;;;5057489;28;20044;-86
2022/09/22 12:31:05;;;;;;;0.82;0.40;;;;;;;;;;5057025;28;20518;-88
2022/09/22 12:33:36;;;;;;;2.10;0.30;;;;;;;;;;5057954;28;20048;-88
2022/09/22 12:36:05;;;;;;;0.20;0.20;;;;;;;;;;5057166;28;20045;-88
2022/09/22 12:38:33;;;;;;;0.32;0.28;;;;;;;;;;5074390;28;20462;-88
2022/09/22 12:41:03;;;;;;;3.00;0.20;;;;;;;;;;5056559;28;20064;-88
2022/09/22 12:43:30;;;;;;;1.23;0.30;;;;;;;;;;5056562;28;20052;-89
2022/09/22 12:45:59;;;;;;;0.30;0.22;;;;;;;;;;5074371;28;20135;-89
2022/09/22 12:48:31;;;;;;;0.30;0.30;;;;;;;;;;5056820;28;20415;-88
2022/09/22 12:51:16;;;;;;;0.60;0.30;;;;;;;;;;5056832;28;20381;-87
2022/09/22 12:53:43;;;;;;;0.77;0.30;;;;;;;;;;5074705;28;20055;-86
2022/09/22 12:56:43;;;;;;;1.00;0.22;;;;;;;;;;5074284;28;20052;-89
2022/09/22 12:59:29;;;;;;;0.60;0.35;;;;;;;;;;5057212;28;20119;-88
2022/09/22 13:02:10;;;;;;;0.28;0.28;;;;;;;;;;5074183;28;20055;-88
2022/09/22 13:04:38;;;;;;;1.50;0.52;;;;;;;;;;5056753;28;20052;-87
2022/09/22 13:07:24;;;;;;;1.95;0.40;;;;;;;;;;5056445;28;20412;-88
2022/09/22 13:10:12;;;;;;;0.50;0.30;;;;;;;;;;5056636;28;20139;-88
2022/09/22 13:12:39;;;;;;;3.00;0.90;;;;;;;;;;5057374;28;20052;-88
2022/09/22 13:15:06;;;;;;;2.80;0.40;;;;;;;;;;5056411;28;20055;-88
2022/09/22 13:17:40;;;;;;;0.93;0.50;;;;;;;;;;5074013;28;20053;-88
2022/09/22 13:20:16;;;;;;;1.95;0.25;;;;;;;;;;5056570;28;20052;-88
2022/09/22 13:22:43;;;;;;;1.67;0.25;;;;;;;;;;5056117;28;20057;-88
2022/09/22 13:25:20;;;;;;;1.83;0.47;;;;;;;;;;5073848;28;20472;-88
2022/09/22 13:27:47;;;;;;;0.90;0.20;;;;;;;;;;5056211;28;20408;-88
2022/09/22 13:30:14;;;;;;;2.50;0.50;;;;;;;;;;5056293;28;20045;-88
2022/09/22 13:32:48;;;;;;;1.95;0.60;;;;;;;;;;5073822;28;20112;-89
2022/09/22 13:35:36;;;;;;;1.75;0.60;;;;;;;;;;5073553;28;20076;-88
2022/09/22 13:38:03;;;;;;;1.95;0.40;;;;;;;;;;5073528;28;20052;-88
2022/09/22 13:40:33;;;;;;;0.95;0.40;;;;;;;;;;5056251;28;20128;-88
2022/09/22 13:43:05;;;;;;;0.73;0.40;;;;;;;;;;5073663;28;20130;-89
2022/09/22 13:45:32;;;;;;;1.95;0.43;;;;;;;;;;5056205;28;20413;-88
2022/09/22 13:48:04;;;;;;;3.00;0.70;;;;;;;;;;5073367;28;20091;-88
2022/09/22 13:50:39;;;;;;;10.10;1.20;;;;;;;;;;5073610;28;20041;-88
2022/09/22 13:53:06;;;;;;;2.05;0.70;;;;;;;;;;5055769;28;20055;-88
2022/09/22 13:55:36;;;;;;;5.60;1.80;;;;;;;;;;5055944;28;20389;-87
2022/09/22 13:58:07;;;;;;;7.20;0.85;;;;;;;;;;5056409;28;20052;-89
2022/09/22 14:00:45;;;;;;;1.90;0.47;;;;;;;;;;5055995;28;20059;-89
2022/09/22 14:03:37;;;;;;;1.17;0.60;;;;;;;;;;5073494;28;20389;-89
2022/09/22 14:06:05;;;;;;;1.77;0.40;;;;;;;;;;5055612;28;20053;-89
2022/09/22 14:08:32;;;;;;;1.05;0.30;;;;;;;;;;5073507;28;20583;-90
2022/09/22 14:11:01;;;;;;;1.10;0.52;;;;;;;;;;5055715;28;20059;-90
2022/09/22 14:13:38;;;;;;;2.65;0.90;;;;;;;;;;5055920;28;20048;-89
2022/09/22 14:16:11;;;;;;;3.42;0.50;;;;;;;;;;5055878;28;20055;-89
2022/09/22 14:18:44;;;;;;;2.03;0.57;;;;;;;;;;5056024;28;20048;-91
2022/09/22 14:21:12;;;;;;;0.63;0.57;;;;;;;;;;5055902;28;20066;-87
2022/09/22 14:23:43;;;;;;;0.68;0.55;;;;;;;;;;5055542;28;20052;-89
2022/09/22 14:26:32;;;;;;;1.02;0.60;;;;;;;;;;5055555;28;20048;-90
2022/09/22 14:29:06;;;;;;;0.45;0.40;;;;;;;;;;5055430;28;20475;-91
2022/09/22 14:31:33;;;;;;;0.40;0.40;;;;;;;;;;5055919;28;20055;-89
2022/09/22 14:34:01;;;;;;;2.45;1.10;;;;;;;;;;5055497;28;20048;-88
2022/09/22 14:36:29;;;;;;;1.80;0.47;;;;;;;;;;5073228;28;20416;-89
2022/09/22 14:39:00;;;;;;;6.00;0.73;;;;;;;;;;5055691;28;20056;-89
2022/09/22 14:41:36;;;;;;;2.63;0.50;;;;;;;;;;5073186;28;20055;-88
2022/09/22 14:44:25;;;;;;;1.00;0.38;;;;;;;;;;5055420;28;20040;-89
2022/09/22 14:46:55;;;;;;;1.75;0.40;;;;;;;;;;5055374;28;20083;-87
2022/09/22 14:49:42;;;;;;;2.33;0.60;;;;;;;;;;5073071;28;20496;-87
2022/09/22 14:52:26;;;;;;;1.85;0.50;;;;;;;;;;5055261;28;20522;-87
2022/09/22 14:54:55;;;;;;;0.50;0.30;;;;;;;;;;5072892;28;20049;-90
2022/09/22 14:57:22;;;;;;;2.28;0.50;;;;;;;;;;5055251;28;20048;-90
2022/09/22 15:02:43;;;;;;;0.63;0.43;;;;;;;;;;5072757;28;20044;-88
2022/09/22 15:05:10;;;;;;;0.85;0.52;;;;;;;;;;5056049;28;20056;-91
2022/09/22 15:07:39;;;;;;;0.50;0.40;;;;;;;;;;5058948;28;20132;-89
2022/09/22 15:10:20;;;;;;;1.92;0.22;;;;;;;;;;5059289;28;20048;-88
2022/09/22 15:12:47;;;;;;;1.85;0.43;;;;;;;;;;5058851;28;20071;-87
2022/09/22 15:15:17;;;;;;;2.20;0.70;;;;;;;;;;5076456;28;20135;-89
2022/09/22 15:20:41;;;;;;;1.73;0.60;;;;;;;;;;5076214;28;20052;-88
2022/09/22 15:23:11;;;;;;;2.55;0.60;;;;;;;;;;5058423;28;20064;-86
2022/09/22 15:25:38;;;;;;;1.55;0.25;;;;;;;;;;5058427;28;20044;-89